ADDS METAR Data INFO
IDs: Format: Raw Decoded Include TAF

Data at: 1134 UTC 23 Jun 2018

KADG 231117Z AUTO 00000KT 3SM -RA BR BKN004 BKN021 OVC040 19/18 A2970 RMK AO2 P0000 T01890183 TSNO
KADG 231104Z AUTO 00000KT 3SM -RA BR SCT004 BKN021 OVC041 19/18 A2970 RMK AO2 P0000 T01890183 TSNO
KADG 231056Z AUTO 00000KT 2 1/2SM -RA BR SCT004 BKN041 OVC065 19/18 A2970 RMK AO2 P0000 T01890183 TSNO
KADG 231053Z AUTO 03003KT 2 1/2SM -RA BR BKN004 BKN041 OVC055 19/18 A2969 RMK AO2 RAB34 SLP054 P0001 T01890183 TSNO
KADG 231041Z AUTO 03004KT 2 1/2SM -RA BR BKN004 BKN014 OVC055 18/18 A2969 RMK AO2 RAB34 P0001 T01830178 TSNO
KADG 230953Z AUTO 08004KT 3SM BR BKN004 OVC010 18/18 A2968 RMK AO2 RAE23 SLP050 P0000 T01830178 TSNO
KADG 230945Z AUTO 07004KT 3SM BR BKN004 OVC010 18/18 A2968 RMK AO2 RAE23 CIG 002V007 P0000 T01830178 TSNO
KADG 230921Z AUTO 07005KT 3SM -RA BR BKN005 OVC009 18/18 A2967 RMK AO2 CIG 002V008 P0000 T01830178 TSNO
KADG 230853Z AUTO 00000KT 4SM -RA BR OVC007 18/18 A2967 RMK AO2 CIG 004V010 SLP047 P0002 60002 T01830178 58007 TSNO
KADG 230831Z AUTO 03005KT 3SM -RA BR OVC006 18/18 A2967 RMK AO2 CIG 004V010 P0002 T01830178 TSNO
KADG 230753Z AUTO 05003KT 3SM -RA BR OVC004 18/18 A2969 RMK AO2 RAB21 SLP051 P0000 T01830178 TSNO
KADG 230742Z AUTO 05003KT 3SM -RA BR BKN005 OVC011 18/18 A2969 RMK AO2 RAB21 P0000 T01830178 TSNO
KADG 230703Z AUTO 05003KT 3SM BR OVC004 18/18 A2969 RMK AO2 T01830178 TSNO
KADG 230653Z AUTO 05003KT 2 1/2SM BR OVC004 18/18 A2969 RMK AO2 SLP054 T01830178 TSNO
KADG 230649Z AUTO 05003KT 2 1/2SM BR OVC004 18/18 A2969 RMK AO2 TSNO
KADG 230615Z AUTO 07004KT 3SM BR OVC003 18/18 A2970 RMK AO2 T01830178 TSNO
KADG 230602Z AUTO 07004KT 2 1/2SM BR OVC003 18/18 A2970 RMK AO2 T01830178 TSNO
KADG 230553Z AUTO 06004KT 3SM BR OVC003 18/18 A2970 RMK AO2 SLP055 T01830178 10183 20172 58009 TSNO
KADG 230453Z AUTO 05005KT 3SM BR OVC004 18/18 A2971 RMK AO2 SLP059 T01780178 402220167 TSNO
KADG 230434Z AUTO 06006KT 3SM BR OVC004 18/18 A2971 RMK AO2 T01780178 TSNO
KADG 230353Z AUTO 06006KT 2SM BR OVC004 18/17 A2972 RMK AO2 SLP063 T01780172 TSNO
KADG 230253Z AUTO 06007KT 5SM BR OVC004 18/17 A2973 RMK AO2 SLP064 T01780172 55003 TSNO
KADG 230153Z AUTO 07007KT 4SM BR OVC003 17/17 A2972 RMK AO2 SLP061 T01720172 TSNO
KADG 230145Z AUTO 07008KT 3SM BR OVC003 17/17 A2971 RMK AO2 T01720172 TSNO
KADG 230128Z AUTO 08009KT 2SM BR OVC003 17/17 A2972 RMK AO2 T01720172 TSNO
KADG 230112Z AUTO 07008KT 1 3/4SM BR OVC003 17/17 A2972 RMK AO2 T01720172 TSNO
KADG 230053Z AUTO 08009KT 1 1/4SM BR OVC003 17/17 A2973 RMK AO2 SLP066 T01720167 TSNO
KADG 230040Z AUTO 08010KT 1 1/2SM BR OVC003 17/17 A2972 RMK AO2 T01720172 TSNO
KADG 230030Z AUTO 09010KT 1 3/4SM BR OVC004 17/17 A2973 RMK AO2 T01720172 TSNO
KADG 222353Z AUTO 09013KT 2 1/2SM BR OVC004 17/17 A2973 RMK AO2 SLP069 60023 T01720167 10200 20172 55007 TSNO
KADG 222343Z AUTO 08011KT 2 1/2SM BR OVC004 17/17 A2973 RMK AO2 T01720172 TSNO
KADG 222253Z AUTO 08012KT 3SM BR OVC005 18/17 A2972 RMK AO2 SLP065 P0001 T01780172 TSNO
KADG 222243Z AUTO 09015G19KT 3SM BR OVC006 18/17 A2972 RMK AO2 P0001 T01780167 TSNO
KADG 222231Z AUTO 08011KT 2 1/2SM BR OVC006 18/17 A2973 RMK AO2 CIG 004V009 P0001 T01780167 TSNO
KADG 222215Z AUTO 08012G18KT 2SM BR OVC007 18/17 A2974 RMK AO2 P0001 T01780167 TSNO
KADG 222153Z AUTO 08011KT 6SM BR OVC007 18/17 A2975 RMK AO2 RAB2059E44 SLP074 P0000 T01780167 TSNO
KADG 222131Z AUTO 07011G19KT 6SM -RA BR BKN009 OVC015 18/17 A2974 RMK AO2 RAB2059 CIG 006V012 P0000 T01780172 TSNO
KADG 222053Z AUTO 09013KT 10SM SCT009 BKN018 OVC033 18/17 A2976 RMK AO2 RAE44 SLP076 P0009 60022 T01830172 58001 TSNO
KADG 222029Z AUTO 09013KT 5SM -RA BR BKN008 BKN012 OVC033 18/18 A2976 RMK AO2 P0009 T01830178 TSNO
KADG 222007Z AUTO 09010KT 2 1/2SM -RA BR BKN006 BKN010 OVC037 18/18 A2976 RMK AO2 P0004 T01830178 TSNO
KADG 221957Z AUTO 09009KT 4SM -RA BR BKN006 BKN014 OVC038 18/18 A2976 RMK AO2 P0001 T01830178 TSNO
KADG 221953Z AUTO 09009KT 3SM -RA BR SCT006 BKN016 OVC038 18/18 A2977 RMK AO2 SLP078 P0006 T01830178 TSNO
KADG 221949Z AUTO 09010KT 2 1/2SM RA BR SCT008 BKN016 OVC038 18/18 A2977 RMK AO2 P0006 TSNO
KADG 221940Z AUTO 11008KT 3SM RA BR FEW008 BKN018 OVC038 18/17 A2977 RMK AO2 P0003 T01830172 TSNO
KADG 221902Z AUTO 11008KT 6SM -RA BR BKN019 OVC026 19/18 A2976 RMK AO2 P0000 T01890178 TSNO
KADG 221853Z AUTO 10005KT 2 1/2SM RA BR OVC019 19/18 A2976 RMK AO2 SLP077 P0007 T01890178 TSNO
KADG 221824Z AUTO 09012KT 5SM -RA BR BKN023 OVC055 19/18 A2976 RMK AO2 P0002 T01890178 TSNO
KADG 221817Z AUTO 09011KT 2 1/2SM -RA BR BKN023 OVC055 19/17 A2976 RMK AO2 P0002 T01890172 TSNO
KADG 221753Z AUTO 09010KT 6SM -RA BKN024 OVC070 20/17 A2977 RMK AO2 SLP079 P0016 60020 T02000172 10222 20167 58007 TSNO
KADG 221731Z AUTO 09014KT 5SM -RA BR SCT050 BKN070 OVC090 19/17 A2976 RMK AO2 P0014 T01940172 TSNO
KADG 221723Z AUTO 09012G19KT 2 1/2SM RA BR SCT045 BKN065 OVC100 19/17 A2976 RMK AO2 P0014 T01940172 TSNO
KADG 221711Z AUTO 08011KT 6SM -RA BR SCT021 BKN065 OVC110 19/17 A2977 RMK AO2 P0004 T01940172 TSNO
KADG 221653Z AUTO 09011G18KT 9SM -RA OVC021 20/17 A2979 RMK AO2 RAB02 SLP086 P0004 T02000172 TSNO
KADG 221553Z AUTO 10013KT 10SM OVC017 21/17 A2979 RMK AO2 SLP086 T02110172 TSNO
KADG 221453Z AUTO 09011KT 10SM OVC016 21/17 A2979 RMK AO2 SLP085 60000 T02060167 58005 TSNO
KADG 221411Z AUTO 09013KT 10SM BKN017 OVC080 20/16 A2980 RMK AO2 T02000161 TSNO
KADG 221353Z AUTO 09013KT 10SM OVC085 19/16 A2980 RMK AO2 RAB35E48 SLP089 P0000 T01890156 TSNO
KADG 221253Z AUTO 07010KT 10SM FEW020 OVC090 18/13 A2981 RMK AO2 SLP092 T01780128 TSNO
KADG 221153Z AUTO 08010KT 10SM OVC090 17/12 A2980 RMK AO2 RAB1056E27 SLP091 P0000 60000 T01670117 10189 20167 51002 TSNO
KADG 221053Z AUTO 08010KT 10SM OVC100 17/11 A2980 RMK AO2 SLP090 T01720111 TSNO
KADG 220953Z AUTO 08009KT 10SM SCT042 BKN060 OVC110 17/11 A2981 RMK AO2 SLP091 T01720106 TSNO
KADG 220853Z AUTO 08012G18KT 10SM FEW075 SCT110 18/12 A2980 RMK AO2 SLP089 60000 T01780122 55009 TSNO
KADG 220753Z AUTO 08012KT 10SM OVC120 18/13 A2980 RMK AO2 RAE03 SLP089 P0000 T01780128 TSNO
KADG 220653Z AUTO 08013KT 10SM -RA FEW043 SCT100 BKN120 18/14 A2981 RMK AO2 RAB51 SLP092 P0000 T01830144 TSNO
KADG 220553Z AUTO 09011KT 10SM FEW120 19/15 A2983 RMK AO2 SLP098 T01890150 10217 20189 58007 TSNO
KADG 220453Z AUTO 08009KT 10SM BKN049 BKN120 19/14 A2984 RMK AO2 SLP104 T01890144 402500150 TSNO
KADG 220353Z AUTO 08010KT 10SM SCT080 SCT100 19/14 A2984 RMK AO2 SLP104 T01940144 TSNO
KADG 220253Z AUTO 09009KT 10SM FEW120 19/16 A2985 RMK AO2 SLP105 T01940156 51007 TSNO
KADG 220153Z AUTO 10011KT 10SM SCT110 20/15 A2984 RMK AO2 SLP104 T02000150 TSNO
KADG 220053Z AUTO 10008KT 10SM CLR 21/13 A2984 RMK AO2 SLP101 T02110133 TSNO
KADG 212353Z AUTO 09010KT 10SM CLR 22/13 A2983 RMK AO2 SLP098 T02170133 10250 20217 51001 TSNO